sensor_id;sensor_type;location;lat;lon;timestamp;P1;durP1;ratioP1;P2;durP2;ratioP2
2123;SDS011;1068;52.460;13.528;2023-02-08T00:02:19;20.70;;;15.23;;
2123;SDS011;1068;52.460;13.528;2023-02-08T00:04:46;19.17;;;14.00;;
2123;SDS011;1068;52.460;13.528;2023-02-08T00:07:13;21.40;;;13.05;;
2123;SDS011;1068;52.460;13.528;2023-02-08T00:09:40;23.35;;;14.13;;
2123;SDS011;1068;52.460;13.528;2023-02-08T00:12:07;21.83;;;13.77;;
2123;SDS011;1068;52.460;13.528;2023-02-08T00:14:34;20.60;;;15.30;;
2123;SDS011;1068;52.460;13.528;2023-02-08T00:17:00;20.92;;;14.52;;
2123;SDS011;1068;52.460;13.528;2023-02-08T00:19:29;16.85;;;11.98;;
2123;SDS011;1068;52.460;13.528;2023-02-08T00:21:56;20.58;;;13.40;;
2123;SDS011;1068;52.460;13.528;2023-02-08T00:24:23;20.88;;;13.07;;
2123;SDS011;1068;52.460;13.528;2023-02-08T00:26:50;22.08;;;14.57;;
2123;SDS011;1068;52.460;13.528;2023-02-08T00:29:17;21.73;;;15.00;;
2123;SDS011;1068;52.460;13.528;2023-02-08T00:31:44;21.55;;;15.00;;
2123;SDS011;1068;52.460;13.528;2023-02-08T00:34:11;20.88;;;13.85;;
2123;SDS011;1068;52.460;13.528;2023-02-08T00:36:40;25.45;;;14.30;;
2123;SDS011;1068;52.460;13.528;2023-02-08T00:39:07;17.52;;;12.20;;
2123;SDS011;1068;52.460;13.528;2023-02-08T00:41:33;15.00;;;12.57;;
2123;SDS011;1068;52.460;13.528;2023-02-08T00:44:00;19.85;;;13.18;;
2123;SDS011;1068;52.460;13.528;2023-02-08T00:46:27;22.23;;;13.05;;
2123;SDS011;1068;52.460;13.528;2023-02-08T00:48:54;22.30;;;14.43;;
2123;SDS011;1068;52.460;13.528;2023-02-08T00:51:21;18.52;;;12.43;;
2123;SDS011;1068;52.460;13.528;2023-02-08T00:53:49;16.38;;;12.45;;
2123;SDS011;1068;52.460;13.528;2023-02-08T00:56:16;22.08;;;12.85;;
2123;SDS011;1068;52.460;13.528;2023-02-08T00:58:43;21.52;;;12.52;;
2123;SDS011;1068;52.460;13.528;2023-02-08T01:01:10;21.83;;;14.30;;
2123;SDS011;1068;52.460;13.528;2023-02-08T01:03:38;18.67;;;14.43;;
2123;SDS011;1068;52.460;13.528;2023-02-08T01:06:06;17.60;;;13.70;;
2123;SDS011;1068;52.460;13.528;2023-02-08T01:08:33;19.15;;;12.95;;
2123;SDS011;1068;52.460;13.528;2023-02-08T01:11:02;17.77;;;12.93;;
2123;SDS011;1068;52.460;13.528;2023-02-08T01:13:29;18.52;;;12.23;;
2123;SDS011;1068;52.460;13.528;2023-02-08T01:16:04;18.60;;;12.20;;
2123;SDS011;1068;52.460;13.528;2023-02-08T01:18:31;20.67;;;12.25;;
2123;SDS011;1068;52.460;13.528;2023-02-08T01:21:02;17.77;;;12.60;;
2123;SDS011;1068;52.460;13.528;2023-02-08T01:23:29;19.40;;;11.32;;
2123;SDS011;1068;52.460;13.528;2023-02-08T01:25:56;19.58;;;12.40;;
2123;SDS011;1068;52.460;13.528;2023-02-08T01:28:24;22.45;;;13.35;;
2123;SDS011;1068;52.460;13.528;2023-02-08T01:30:51;15.65;;;11.38;;
2123;SDS011;1068;52.460;13.528;2023-02-08T01:33:18;18.13;;;12.20;;
2123;SDS011;1068;52.460;13.528;2023-02-08T01:35:45;23.13;;;12.23;;
2123;SDS011;1068;52.460;13.528;2023-02-08T01:38:15;19.27;;;12.05;;
2123;SDS011;1068;52.460;13.528;2023-02-08T01:40:42;18.25;;;12.15;;
2123;SDS011;1068;52.460;13.528;2023-02-08T01:43:10;16.75;;;12.35;;
2123;SDS011;1068;52.460;13.528;2023-02-08T01:45:43;21.05;;;12.80;;
2123;SDS011;1068;52.460;13.528;2023-02-08T01:48:10;17.90;;;12.40;;
2123;SDS011;1068;52.460;13.528;2023-02-08T01:50:40;15.88;;;11.52;;
2123;SDS011;1068;52.460;13.528;2023-02-08T01:53:08;17.08;;;11.90;;
2123;SDS011;1068;52.460;13.528;2023-02-08T01:55:36;15.95;;;11.00;;
2123;SDS011;1068;52.460;13.528;2023-02-08T01:58:05;14.95;;;10.80;;
2123;SDS011;1068;52.460;13.528;2023-02-08T02:00:33;16.40;;;11.43;;
2123;SDS011;1068;52.460;13.528;2023-02-08T02:03:02;18.52;;;12.52;;
2123;SDS011;1068;52.460;13.528;2023-02-08T02:05:31;17.38;;;11.73;;
2123;SDS011;1068;52.460;13.528;2023-02-08T02:07:59;17.42;;;12.18;;
2123;SDS011;1068;52.460;13.528;2023-02-08T02:10:28;17.23;;;11.65;;
2123;SDS011;1068;52.460;13.528;2023-02-08T02:12:58;15.77;;;11.63;;
2123;SDS011;1068;52.460;13.528;2023-02-08T02:15:27;16.40;;;10.88;;
2123;SDS011;1068;52.460;13.528;2023-02-08T02:17:54;19.50;;;12.05;;
2123;SDS011;1068;52.460;13.528;2023-02-08T02:20:23;16.33;;;12.05;;
2123;SDS011;1068;52.460;13.528;2023-02-08T02:23:13;19.85;;;11.95;;
2123;SDS011;1068;52.460;13.528;2023-02-08T02:25:53;14.75;;;11.02;;
2123;SDS011;1068;52.460;13.528;2023-02-08T02:28:30;17.50;;;12.05;;
2123;SDS011;1068;52.460;13.528;2023-02-08T02:33:51;14.88;;;10.90;;
2123;SDS011;1068;52.460;13.528;2023-02-08T02:36:22;15.27;;;10.70;;
2123;SDS011;1068;52.460;13.528;2023-02-08T02:38:55;15.18;;;11.50;;
2123;SDS011;1068;52.460;13.528;2023-02-08T02:41:29;19.10;;;10.95;;
2123;SDS011;1068;52.460;13.528;2023-02-08T02:44:19;22.42;;;12.40;;
2123;SDS011;1068;52.460;13.528;2023-02-08T02:46:49;21.67;;;11.27;;
2123;SDS011;1068;52.460;13.528;2023-02-08T02:49:21;16.33;;;11.75;;
2123;SDS011;1068;52.460;13.528;2023-02-08T02:51:52;18.63;;;12.25;;
2123;SDS011;1068;52.460;13.528;2023-02-08T02:54:22;13.77;;;10.98;;
2123;SDS011;1068;52.460;13.528;2023-02-08T02:56:51;14.52;;;11.10;;
2123;SDS011;1068;52.460;13.528;2023-02-08T02:59:19;14.82;;;10.35;;
2123;SDS011;1068;52.460;13.528;2023-02-08T03:01:47;17.35;;;11.68;;
2123;SDS011;1068;52.460;13.528;2023-02-08T03:04:15;14.18;;;11.77;;
2123;SDS011;1068;52.460;13.528;2023-02-08T03:06:50;17.00;;;11.05;;
2123;SDS011;1068;52.460;13.528;2023-02-08T03:12:03;17.63;;;12.32;;
2123;SDS011;1068;52.460;13.528;2023-02-08T03:14:33;17.48;;;11.50;;
2123;SDS011;1068;52.460;13.528;2023-02-08T03:17:11;19.73;;;12.13;;
2123;SDS011;1068;52.460;13.528;2023-02-08T03:19:42;19.40;;;12.10;;
2123;SDS011;1068;52.460;13.528;2023-02-08T03:22:13;18.10;;;11.20;;
2123;SDS011;1068;52.460;13.528;2023-02-08T03:24:44;16.95;;;10.93;;
2123;SDS011;1068;52.460;13.528;2023-02-08T03:27:13;17.48;;;10.50;;
2123;SDS011;1068;52.460;13.528;2023-02-08T03:29:44;17.25;;;12.00;;
2123;SDS011;1068;52.460;13.528;2023-02-08T03:32:16;16.05;;;11.10;;
2123;SDS011;1068;52.460;13.528;2023-02-08T03:34:45;15.05;;;10.95;;
2123;SDS011;1068;52.460;13.528;2023-02-08T03:37:15;13.80;;;10.52;;
2123;SDS011;1068;52.460;13.528;2023-02-08T03:39:44;14.55;;;10.40;;
2123;SDS011;1068;52.460;13.528;2023-02-08T03:42:14;16.67;;;10.52;;
2123;SDS011;1068;52.460;13.528;2023-02-08T03:44:43;15.88;;;11.80;;
2123;SDS011;1068;52.460;13.528;2023-02-08T03:47:14;19.13;;;11.30;;
2123;SDS011;1068;52.460;13.528;2023-02-08T03:49:42;18.17;;;11.63;;
2123;SDS011;1068;52.460;13.528;2023-02-08T03:52:10;19.60;;;12.05;;
2123;SDS011;1068;52.460;13.528;2023-02-08T03:54:39;19.05;;;10.75;;
2123;SDS011;1068;52.460;13.528;2023-02-08T03:57:09;12.55;;;9.90;;
2123;SDS011;1068;52.460;13.528;2023-02-08T03:59:38;15.40;;;10.43;;
2123;SDS011;1068;52.460;13.528;2023-02-08T04:02:07;19.45;;;11.07;;
2123;SDS011;1068;52.460;13.528;2023-02-08T04:04:36;16.73;;;12.10;;
2123;SDS011;1068;52.460;13.528;2023-02-08T04:07:03;16.63;;;11.50;;
2123;SDS011;1068;52.460;13.528;2023-02-08T04:09:30;15.60;;;10.48;;
2123;SDS011;1068;52.460;13.528;2023-02-08T04:11:59;14.73;;;10.98;;
2123;SDS011;1068;52.460;13.528;2023-02-08T04:14:25;14.95;;;11.10;;
2123;SDS011;1068;52.460;13.528;2023-02-08T04:16:52;20.67;;;12.60;;
2123;SDS011;1068;52.460;13.528;2023-02-08T04:19:19;18.52;;;11.75;;
2123;SDS011;1068;52.460;13.528;2023-02-08T04:21:46;16.40;;;11.32;;
2123;SDS011;1068;52.460;13.528;2023-02-08T04:24:13;18.10;;;11.32;;
2123;SDS011;1068;52.460;13.528;2023-02-08T04:26:40;18.52;;;11.25;;
2123;SDS011;1068;52.460;13.528;2023-02-08T04:29:08;16.15;;;10.98;;
2123;SDS011;1068;52.460;13.528;2023-02-08T04:31:35;17.40;;;11.25;;
2123;SDS011;1068;52.460;13.528;2023-02-08T04:34:02;17.08;;;11.90;;
2123;SDS011;1068;52.460;13.528;2023-02-08T04:36:29;15.77;;;11.38;;
2123;SDS011;1068;52.460;13.528;2023-02-08T04:38:56;18.38;;;12.48;;
2123;SDS011;1068;52.460;13.528;2023-02-08T04:41:23;15.18;;;11.18;;
2123;SDS011;1068;52.460;13.528;2023-02-08T04:43:50;19.75;;;11.30;;
2123;SDS011;1068;52.460;13.528;2023-02-08T04:46:18;14.38;;;10.45;;
2123;SDS011;1068;52.460;13.528;2023-02-08T04:48:45;16.83;;;11.15;;
2123;SDS011;1068;52.460;13.528;2023-02-08T04:51:12;17.25;;;11.23;;
2123;SDS011;1068;52.460;13.528;2023-02-08T04:53:39;15.30;;;10.15;;
2123;SDS011;1068;52.460;13.528;2023-02-08T04:56:07;15.88;;;10.65;;
2123;SDS011;1068;52.460;13.528;2023-02-08T04:58:34;17.38;;;11.07;;
2123;SDS011;1068;52.460;13.528;2023-02-08T05:01:04;15.35;;;11.35;;
2123;SDS011;1068;52.460;13.528;2023-02-08T05:03:32;19.83;;;13.30;;
2123;SDS011;1068;52.460;13.528;2023-02-08T05:05:59;17.75;;;12.60;;
2123;SDS011;1068;52.460;13.528;2023-02-08T05:08:27;18.65;;;10.73;;
2123;SDS011;1068;52.460;13.528;2023-02-08T05:10:54;15.60;;;11.27;;
2123;SDS011;1068;52.460;13.528;2023-02-08T05:13:21;20.95;;;12.07;;
2123;SDS011;1068;52.460;13.528;2023-02-08T05:15:47;18.88;;;12.73;;
2123;SDS011;1068;52.460;13.528;2023-02-08T05:18:14;22.75;;;13.45;;
2123;SDS011;1068;52.460;13.528;2023-02-08T05:20:43;19.60;;;12.98;;
2123;SDS011;1068;52.460;13.528;2023-02-08T05:23:10;20.63;;;13.27;;
2123;SDS011;1068;52.460;13.528;2023-02-08T05:25:37;21.02;;;12.50;;
2123;SDS011;1068;52.460;13.528;2023-02-08T05:28:04;16.23;;;11.38;;
2123;SDS011;1068;52.460;13.528;2023-02-08T05:30:31;18.00;;;11.65;;
2123;SDS011;1068;52.460;13.528;2023-02-08T05:32:58;15.18;;;11.32;;
2123;SDS011;1068;52.460;13.528;2023-02-08T05:35:25;19.02;;;12.65;;
2123;SDS011;1068;52.460;13.528;2023-02-08T05:37:53;19.13;;;12.70;;
2123;SDS011;1068;52.460;13.528;2023-02-08T05:40:20;16.30;;;11.85;;
2123;SDS011;1068;52.460;13.528;2023-02-08T05:42:47;21.58;;;13.18;;
2123;SDS011;1068;52.460;13.528;2023-02-08T05:45:14;19.90;;;12.25;;
2123;SDS011;1068;52.460;13.528;2023-02-08T05:47:41;22.58;;;12.65;;
2123;SDS011;1068;52.460;13.528;2023-02-08T05:50:08;19.27;;;12.80;;
2123;SDS011;1068;52.460;13.528;2023-02-08T05:52:35;16.90;;;11.93;;
2123;SDS011;1068;52.460;13.528;2023-02-08T05:55:04;21.65;;;12.98;;
2123;SDS011;1068;52.460;13.528;2023-02-08T05:57:31;23.52;;;14.05;;
2123;SDS011;1068;52.460;13.528;2023-02-08T05:59:58;18.50;;;12.32;;
2123;SDS011;1068;52.460;13.528;2023-02-08T06:02:25;21.05;;;13.05;;
2123;SDS011;1068;52.460;13.528;2023-02-08T06:04:52;20.40;;;13.82;;
2123;SDS011;1068;52.460;13.528;2023-02-08T06:07:19;18.73;;;13.52;;
2123;SDS011;1068;52.460;13.528;2023-02-08T06:09:45;21.30;;;14.30;;
2123;SDS011;1068;52.460;13.528;2023-02-08T06:12:14;21.70;;;14.50;;
2123;SDS011;1068;52.460;13.528;2023-02-08T06:14:41;24.73;;;13.95;;
2123;SDS011;1068;52.460;13.528;2023-02-08T06:17:08;17.38;;;12.73;;
2123;SDS011;1068;52.460;13.528;2023-02-08T06:19:36;18.95;;;14.20;;
2123;SDS011;1068;52.460;13.528;2023-02-08T06:22:03;21.20;;;14.20;;
2123;SDS011;1068;52.460;13.528;2023-02-08T06:24:29;21.65;;;13.43;;
2123;SDS011;1068;52.460;13.528;2023-02-08T06:26:56;20.33;;;13.32;;
2123;SDS011;1068;52.460;13.528;2023-02-08T06:29:25;19.45;;;13.15;;
2123;SDS011;1068;52.460;13.528;2023-02-08T06:31:52;20.08;;;13.25;;
2123;SDS011;1068;52.460;13.528;2023-02-08T06:34:19;19.58;;;12.93;;
2123;SDS011;1068;52.460;13.528;2023-02-08T06:36:46;22.33;;;14.38;;
2123;SDS011;1068;52.460;13.528;2023-02-08T06:39:12;21.45;;;13.77;;
2123;SDS011;1068;52.460;13.528;2023-02-08T06:41:39;27.33;;;15.90;;
2123;SDS011;1068;52.460;13.528;2023-02-08T06:44:06;23.85;;;15.10;;
2123;SDS011;1068;52.460;13.528;2023-02-08T06:46:35;23.88;;;15.95;;
2123;SDS011;1068;52.460;13.528;2023-02-08T06:49:02;26.83;;;15.75;;
2123;SDS011;1068;52.460;13.528;2023-02-08T06:51:29;19.20;;;14.63;;
2123;SDS011;1068;52.460;13.528;2023-02-08T06:53:55;26.63;;;15.75;;
2123;SDS011;1068;52.460;13.528;2023-02-08T06:56:22;25.88;;;15.95;;
2123;SDS011;1068;52.460;13.528;2023-02-08T06:58:49;19.48;;;13.93;;
2123;SDS011;1068;52.460;13.528;2023-02-08T07:01:16;20.70;;;14.45;;
2123;SDS011;1068;52.460;13.528;2023-02-08T07:03:45;21.42;;;14.93;;
2123;SDS011;1068;52.460;13.528;2023-02-08T07:06:12;20.58;;;14.27;;
2123;SDS011;1068;52.460;13.528;2023-02-08T07:08:39;22.02;;;14.50;;
2123;SDS011;1068;52.460;13.528;2023-02-08T07:11:06;21.52;;;15.15;;
2123;SDS011;1068;52.460;13.528;2023-02-08T07:13:34;23.48;;;14.30;;
2123;SDS011;1068;52.460;13.528;2023-02-08T07:16:01;23.58;;;15.75;;
2123;SDS011;1068;52.460;13.528;2023-02-08T07:18:28;22.45;;;15.40;;
2123;SDS011;1068;52.460;13.528;2023-02-08T07:20:56;21.65;;;14.75;;
2123;SDS011;1068;52.460;13.528;2023-02-08T07:23:23;22.80;;;14.45;;
2123;SDS011;1068;52.460;13.528;2023-02-08T07:25:56;22.90;;;16.10;;
2123;SDS011;1068;52.460;13.528;2023-02-08T07:28:23;22.20;;;16.17;;
2123;SDS011;1068;52.460;13.528;2023-02-08T07:30:51;25.05;;;16.27;;
2123;SDS011;1068;52.460;13.528;2023-02-08T07:33:18;24.13;;;15.10;;
2123;SDS011;1068;52.460;13.528;2023-02-08T07:35:45;25.92;;;14.50;;
2123;SDS011;1068;52.460;13.528;2023-02-08T07:38:13;28.50;;;17.08;;
2123;SDS011;1068;52.460;13.528;2023-02-08T07:40:40;23.23;;;14.98;;
2123;SDS011;1068;52.460;13.528;2023-02-08T07:43:07;25.00;;;16.25;;
2123;SDS011;1068;52.460;13.528;2023-02-08T07:45:35;23.33;;;14.43;;
2123;SDS011;1068;52.460;13.528;2023-02-08T07:48:02;24.08;;;15.25;;
2123;SDS011;1068;52.460;13.528;2023-02-08T07:50:29;29.45;;;16.90;;
2123;SDS011;1068;52.460;13.528;2023-02-08T07:52:56;27.67;;;17.35;;
2123;SDS011;1068;52.460;13.528;2023-02-08T07:55:25;26.70;;;17.40;;
2123;SDS011;1068;52.460;13.528;2023-02-08T07:57:53;26.63;;;17.75;;
2123;SDS011;1068;52.460;13.528;2023-02-08T08:00:21;30.27;;;18.65;;
2123;SDS011;1068;52.460;13.528;2023-02-08T08:02:48;39.63;;;19.45;;
2123;SDS011;1068;52.460;13.528;2023-02-08T08:05:15;33.95;;;20.58;;
2123;SDS011;1068;52.460;13.528;2023-02-08T08:07:42;37.08;;;24.10;;
2123;SDS011;1068;52.460;13.528;2023-02-08T08:10:09;36.65;;;22.02;;
2123;SDS011;1068;52.460;13.528;2023-02-08T08:12:37;32.17;;;20.40;;
2123;SDS011;1068;52.460;13.528;2023-02-08T08:15:05;33.35;;;20.55;;
2123;SDS011;1068;52.460;13.528;2023-02-08T08:17:32;33.38;;;21.48;;
2123;SDS011;1068;52.460;13.528;2023-02-08T08:19:59;32.45;;;20.42;;
2123;SDS011;1068;52.460;13.528;2023-02-08T08:22:26;29.92;;;19.92;;
2123;SDS011;1068;52.460;13.528;2023-02-08T08:24:52;35.08;;;22.85;;
2123;SDS011;1068;52.460;13.528;2023-02-08T08:27:19;37.20;;;19.95;;
2123;SDS011;1068;52.460;13.528;2023-02-08T08:29:48;38.17;;;23.58;;
2123;SDS011;1068;52.460;13.528;2023-02-08T08:32:15;38.70;;;22.10;;
2123;SDS011;1068;52.460;13.528;2023-02-08T08:34:42;35.92;;;20.90;;
2123;SDS011;1068;52.460;13.528;2023-02-08T08:37:08;38.28;;;23.23;;
2123;SDS011;1068;52.460;13.528;2023-02-08T08:39:35;35.63;;;21.85;;
2123;SDS011;1068;52.460;13.528;2023-02-08T08:42:02;35.58;;;21.30;;
2123;SDS011;1068;52.460;13.528;2023-02-08T08:44:30;37.78;;;21.85;;
2123;SDS011;1068;52.460;13.528;2023-02-08T08:46:58;39.75;;;23.00;;
2123;SDS011;1068;52.460;13.528;2023-02-08T08:49:26;37.28;;;22.33;;
2123;SDS011;1068;52.460;13.528;2023-02-08T08:51:53;37.45;;;23.48;;
2123;SDS011;1068;52.460;13.528;2023-02-08T08:54:20;37.20;;;21.05;;
2123;SDS011;1068;52.460;13.528;2023-02-08T08:56:47;37.78;;;22.00;;
2123;SDS011;1068;52.460;13.528;2023-02-08T08:59:14;38.60;;;21.88;;
2123;SDS011;1068;52.460;13.528;2023-02-08T09:01:41;34.55;;;22.23;;
2123;SDS011;1068;52.460;13.528;2023-02-08T09:04:09;33.67;;;20.15;;
2123;SDS011;1068;52.460;13.528;2023-02-08T09:06:36;36.70;;;21.15;;
2123;SDS011;1068;52.460;13.528;2023-02-08T09:09:03;34.25;;;21.27;;
2123;SDS011;1068;52.460;13.528;2023-02-08T09:11:30;42.58;;;22.85;;
2123;SDS011;1068;52.460;13.528;2023-02-08T09:13:58;38.13;;;22.30;;
2123;SDS011;1068;52.460;13.528;2023-02-08T09:16:25;38.00;;;22.70;;
2123;SDS011;1068;52.460;13.528;2023-02-08T09:18:52;36.88;;;21.25;;
2123;SDS011;1068;52.460;13.528;2023-02-08T09:21:21;33.13;;;21.75;;
2123;SDS011;1068;52.460;13.528;2023-02-08T09:23:49;37.67;;;22.10;;
2123;SDS011;1068;52.460;13.528;2023-02-08T09:26:17;37.90;;;21.80;;
2123;SDS011;1068;52.460;13.528;2023-02-08T09:28:44;30.20;;;21.08;;
2123;SDS011;1068;52.460;13.528;2023-02-08T09:31:12;39.80;;;23.73;;
2123;SDS011;1068;52.460;13.528;2023-02-08T09:33:40;38.67;;;23.85;;
2123;SDS011;1068;52.460;13.528;2023-02-08T09:36:08;40.33;;;22.60;;
2123;SDS011;1068;52.460;13.528;2023-02-08T09:38:36;36.58;;;22.70;;
2123;SDS011;1068;52.460;13.528;2023-02-08T09:41:07;41.65;;;24.02;;
2123;SDS011;1068;52.460;13.528;2023-02-08T09:43:39;40.83;;;24.00;;
2123;SDS011;1068;52.460;13.528;2023-02-08T09:46:10;39.35;;;23.15;;
2123;SDS011;1068;52.460;13.528;2023-02-08T09:48:37;35.97;;;22.75;;
2123;SDS011;1068;52.460;13.528;2023-02-08T09:51:07;34.25;;;21.83;;
2123;SDS011;1068;52.460;13.528;2023-02-08T09:53:38;36.55;;;22.88;;
2123;SDS011;1068;52.460;13.528;2023-02-08T09:56:08;38.97;;;23.27;;
2123;SDS011;1068;52.460;13.528;2023-02-08T09:58:37;33.97;;;20.95;;
2123;SDS011;1068;52.460;13.528;2023-02-08T10:01:06;37.58;;;22.40;;
2123;SDS011;1068;52.460;13.528;2023-02-08T10:03:37;37.55;;;21.85;;
2123;SDS011;1068;52.460;13.528;2023-02-08T10:06:05;34.35;;;21.60;;
2123;SDS011;1068;52.460;13.528;2023-02-08T10:08:33;39.92;;;23.95;;
2123;SDS011;1068;52.460;13.528;2023-02-08T10:11:05;38.13;;;24.25;;
2123;SDS011;1068;52.460;13.528;2023-02-08T10:13:38;35.42;;;22.08;;
2123;SDS011;1068;52.460;13.528;2023-02-08T10:16:12;36.90;;;22.45;;
2123;SDS011;1068;52.460;13.528;2023-02-08T10:18:42;37.28;;;23.40;;
2123;SDS011;1068;52.460;13.528;2023-02-08T10:21:23;36.72;;;23.80;;
2123;SDS011;1068;52.460;13.528;2023-02-08T10:24:04;33.75;;;20.77;;
2123;SDS011;1068;52.460;13.528;2023-02-08T10:26:36;35.15;;;21.58;;
2123;SDS011;1068;52.460;13.528;2023-02-08T10:29:11;39.35;;;23.77;;
2123;SDS011;1068;52.460;13.528;2023-02-08T10:31:48;38.60;;;22.27;;
2123;SDS011;1068;52.460;13.528;2023-02-08T10:34:24;42.88;;;23.52;;
2123;SDS011;1068;52.460;13.528;2023-02-08T10:36:55;42.50;;;23.23;;
2123;SDS011;1068;52.460;13.528;2023-02-08T10:39:22;40.40;;;22.35;;
2123;SDS011;1068;52.460;13.528;2023-02-08T10:41:51;36.53;;;21.98;;
2123;SDS011;1068;52.460;13.528;2023-02-08T10:44:20;32.22;;;20.73;;
2123;SDS011;1068;52.460;13.528;2023-02-08T10:46:49;37.75;;;21.55;;
2123;SDS011;1068;52.460;13.528;2023-02-08T10:49:19;30.13;;;20.52;;
2123;SDS011;1068;52.460;13.528;2023-02-08T10:51:47;35.03;;;22.58;;
2123;SDS011;1068;52.460;13.528;2023-02-08T10:54:14;35.17;;;22.25;;
2123;SDS011;1068;52.460;13.528;2023-02-08T10:56:43;35.78;;;23.13;;
2123;SDS011;1068;52.460;13.528;2023-02-08T10:59:17;34.38;;;20.05;;
2123;SDS011;1068;52.460;13.528;2023-02-08T11:01:45;31.15;;;20.90;;
2123;SDS011;1068;52.460;13.528;2023-02-08T11:04:13;33.65;;;20.40;;
2123;SDS011;1068;52.460;13.528;2023-02-08T11:06:41;41.20;;;20.50;;
2123;SDS011;1068;52.460;13.528;2023-02-08T11:09:18;31.60;;;20.40;;
2123;SDS011;1068;52.460;13.528;2023-02-08T11:11:45;37.42;;;20.10;;
2123;SDS011;1068;52.460;13.528;2023-02-08T11:14:15;31.45;;;19.38;;
2123;SDS011;1068;52.460;13.528;2023-02-08T11:16:48;31.40;;;21.05;;
2123;SDS011;1068;52.460;13.528;2023-02-08T11:19:19;35.00;;;19.80;;
2123;SDS011;1068;52.460;13.528;2023-02-08T11:21:47;32.75;;;20.67;;
2123;SDS011;1068;52.460;13.528;2023-02-08T11:24:22;32.17;;;20.17;;
2123;SDS011;1068;52.460;13.528;2023-02-08T11:26:52;35.75;;;20.98;;
2123;SDS011;1068;52.460;13.528;2023-02-08T11:29:21;31.80;;;20.00;;
2123;SDS011;1068;52.460;13.528;2023-02-08T11:31:59;32.70;;;20.98;;
2123;SDS011;1068;52.460;13.528;2023-02-08T11:34:27;36.25;;;21.17;;
2123;SDS011;1068;52.460;13.528;2023-02-08T11:36:56;34.47;;;23.92;;
2123;SDS011;1068;52.460;13.528;2023-02-08T11:39:24;38.88;;;19.55;;
2123;SDS011;1068;52.460;13.528;2023-02-08T11:41:53;35.53;;;22.02;;
2123;SDS011;1068;52.460;13.528;2023-02-08T11:44:22;36.25;;;22.20;;
2123;SDS011;1068;52.460;13.528;2023-02-08T11:46:50;31.05;;;20.20;;
2123;SDS011;1068;52.460;13.528;2023-02-08T11:49:20;35.15;;;20.20;;
2123;SDS011;1068;52.460;13.528;2023-02-08T11:51:48;34.40;;;20.83;;
2123;SDS011;1068;52.460;13.528;2023-02-08T11:54:30;37.95;;;21.10;;
2123;SDS011;1068;52.460;13.528;2023-02-08T11:57:01;34.70;;;20.35;;
2123;SDS011;1068;52.460;13.528;2023-02-08T11:59:28;32.50;;;20.90;;
2123;SDS011;1068;52.460;13.528;2023-02-08T12:01:56;30.80;;;19.75;;
2123;SDS011;1068;52.460;13.528;2023-02-08T12:04:24;30.27;;;18.83;;
2123;SDS011;1068;52.460;13.528;2023-02-08T12:06:56;31.70;;;19.40;;
2123;SDS011;1068;52.460;13.528;2023-02-08T12:09:33;35.13;;;20.10;;
2123;SDS011;1068;52.460;13.528;2023-02-08T12:12:04;35.17;;;20.00;;
2123;SDS011;1068;52.460;13.528;2023-02-08T12:14:39;41.88;;;20.98;;
2123;SDS011;1068;52.460;13.528;2023-02-08T12:17:15;31.58;;;20.20;;
2123;SDS011;1068;52.460;13.528;2023-02-08T12:19:54;32.80;;;19.85;;
2123;SDS011;1068;52.460;13.528;2023-02-08T12:22:25;28.75;;;18.95;;
2123;SDS011;1068;52.460;13.528;2023-02-08T12:24:54;32.55;;;19.27;;
2123;SDS011;1068;52.460;13.528;2023-02-08T12:27:29;36.15;;;20.52;;
2123;SDS011;1068;52.460;13.528;2023-02-08T12:29:59;30.00;;;20.20;;
2123;SDS011;1068;52.460;13.528;2023-02-08T12:32:33;31.38;;;19.52;;
2123;SDS011;1068;52.460;13.528;2023-02-08T12:35:07;29.45;;;18.42;;
2123;SDS011;1068;52.460;13.528;2023-02-08T12:37:40;30.90;;;20.77;;
2123;SDS011;1068;52.460;13.528;2023-02-08T12:40:33;29.02;;;20.02;;
2123;SDS011;1068;52.460;13.528;2023-02-08T12:43:16;32.15;;;20.05;;
2123;SDS011;1068;52.460;13.528;2023-02-08T12:45:54;26.75;;;18.77;;
2123;SDS011;1068;52.460;13.528;2023-02-08T12:48:31;28.02;;;18.88;;
2123;SDS011;1068;52.460;13.528;2023-02-08T12:51:02;30.55;;;19.50;;
2123;SDS011;1068;52.460;13.528;2023-02-08T12:53:32;32.60;;;18.77;;
2123;SDS011;1068;52.460;13.528;2023-02-08T12:56:04;26.90;;;18.92;;
2123;SDS011;1068;52.460;13.528;2023-02-08T12:58:33;30.23;;;18.13;;
2123;SDS011;1068;52.460;13.528;2023-02-08T13:01:04;31.73;;;19.13;;
2123;SDS011;1068;52.460;13.528;2023-02-08T13:03:34;33.45;;;19.40;;
2123;SDS011;1068;52.460;13.528;2023-02-08T13:06:06;29.55;;;20.80;;
2123;SDS011;1068;52.460;13.528;2023-02-08T13:08:35;32.17;;;19.52;;
2123;SDS011;1068;52.460;13.528;2023-02-08T13:11:05;30.15;;;18.83;;
2123;SDS011;1068;52.460;13.528;2023-02-08T13:13:36;26.85;;;18.00;;
2123;SDS011;1068;52.460;13.528;2023-02-08T13:16:06;33.30;;;19.92;;
2123;SDS011;1068;52.460;13.528;2023-02-08T13:18:35;23.90;;;17.58;;
2123;SDS011;1068;52.460;13.528;2023-02-08T13:21:04;26.33;;;18.60;;
2123;SDS011;1068;52.460;13.528;2023-02-08T13:23:35;28.45;;;18.38;;
2123;SDS011;1068;52.460;13.528;2023-02-08T13:26:05;27.58;;;18.10;;
2123;SDS011;1068;52.460;13.528;2023-02-08T13:28:33;26.08;;;17.70;;
2123;SDS011;1068;52.460;13.528;2023-02-08T13:31:01;30.88;;;17.75;;
2123;SDS011;1068;52.460;13.528;2023-02-08T13:33:30;29.23;;;18.85;;
2123;SDS011;1068;52.460;13.528;2023-02-08T13:35:59;26.35;;;18.80;;
2123;SDS011;1068;52.460;13.528;2023-02-08T13:38:27;30.10;;;16.60;;
2123;SDS011;1068;52.460;13.528;2023-02-08T13:41:02;28.00;;;17.42;;
2123;SDS011;1068;52.460;13.528;2023-02-08T13:43:32;29.02;;;18.08;;
2123;SDS011;1068;52.460;13.528;2023-02-08T13:46:00;27.35;;;17.75;;
2123;SDS011;1068;52.460;13.528;2023-02-08T13:48:27;25.88;;;17.55;;
2123;SDS011;1068;52.460;13.528;2023-02-08T13:51:08;30.20;;;19.67;;
2123;SDS011;1068;52.460;13.528;2023-02-08T13:54:08;26.60;;;17.55;;
2123;SDS011;1068;52.460;13.528;2023-02-08T13:56:38;30.67;;;20.13;;
2123;SDS011;1068;52.460;13.528;2023-02-08T14:04:35;27.77;;;18.00;;
2123;SDS011;1068;52.460;13.528;2023-02-08T14:07:04;30.13;;;19.60;;
2123;SDS011;1068;52.460;13.528;2023-02-08T14:09:38;27.45;;;18.80;;
2123;SDS011;1068;52.460;13.528;2023-02-08T14:12:10;27.48;;;18.98;;
2123;SDS011;1068;52.460;13.528;2023-02-08T14:14:39;28.05;;;17.38;;
2123;SDS011;1068;52.460;13.528;2023-02-08T14:17:17;29.83;;;18.60;;
2123;SDS011;1068;52.460;13.528;2023-02-08T14:19:45;28.55;;;19.25;;
2123;SDS011;1068;52.460;13.528;2023-02-08T14:22:21;23.60;;;17.00;;
2123;SDS011;1068;52.460;13.528;2023-02-08T14:24:49;31.38;;;17.38;;
2123;SDS011;1068;52.460;13.528;2023-02-08T14:27:27;27.90;;;18.75;;
2123;SDS011;1068;52.460;13.528;2023-02-08T14:29:57;30.38;;;18.90;;
2123;SDS011;1068;52.460;13.528;2023-02-08T14:32:25;29.98;;;18.55;;
2123;SDS011;1068;52.460;13.528;2023-02-08T14:34:57;34.90;;;17.40;;
2123;SDS011;1068;52.460;13.528;2023-02-08T14:37:26;25.73;;;16.38;;
2123;SDS011;1068;52.460;13.528;2023-02-08T14:42:55;23.65;;;15.07;;
2123;SDS011;1068;52.460;13.528;2023-02-08T14:45:25;26.05;;;15.68;;
2123;SDS011;1068;52.460;13.528;2023-02-08T14:47:53;24.90;;;15.95;;
2123;SDS011;1068;52.460;13.528;2023-02-08T14:50:25;28.42;;;16.63;;
2123;SDS011;1068;52.460;13.528;2023-02-08T14:52:56;26.42;;;16.27;;
2123;SDS011;1068;52.460;13.528;2023-02-08T14:55:25;26.20;;;16.25;;
2123;SDS011;1068;52.460;13.528;2023-02-08T14:57:53;26.60;;;15.85;;
2123;SDS011;1068;52.460;13.528;2023-02-08T15:00:22;27.60;;;18.50;;